createdAt,value
2018-05-10T00:02:03.001Z,99273.16
2018-05-10T00:04:29.777Z,99274.39
2018-05-10T00:06:56.454Z,99270.45
2018-05-10T00:09:26.729Z,99273.16
2018-05-10T00:11:53.402Z,99277.76
2018-05-10T00:14:19.982Z,99280.28
2018-05-10T00:16:46.587Z,99279.02
2018-05-10T00:19:17.419Z,99277.58
2018-05-10T00:21:44.121Z,99278.81
2018-05-10T00:24:11.121Z,99282.66
2018-05-10T00:26:37.606Z,99282.56
2018-05-10T00:29:07.857Z,99287.36
2018-05-10T00:31:34.478Z,99284.75
2018-05-10T00:34:01.147Z,99282.95
2018-05-10T00:36:27.705Z,99282.06
2018-05-10T00:39:00.305Z,99276.59
2018-05-10T00:41:27.024Z,99283.69
2018-05-10T00:43:54.417Z,99288.00
2018-05-10T00:46:21.084Z,99284.26
2018-05-10T00:48:51.580Z,99281.88
2018-05-10T00:51:18.242Z,99283.73
2018-05-10T00:53:44.950Z,99288.23
2018-05-10T00:56:11.574Z,99285.16
2018-05-10T00:58:39.365Z,99284.31
2018-05-10T01:01:06.008Z,99290.11
2018-05-10T01:03:32.997Z,99277.77
2018-05-10T01:05:59.534Z,99278.20
2018-05-10T01:08:26.246Z,99275.70
2018-05-10T01:10:52.879Z,99273.72
2018-05-10T01:13:19.618Z,99272.73
2018-05-10T01:15:46.909Z,99269.27
2018-05-10T01:18:13.906Z,99267.30
2018-05-10T01:20:40.521Z,99264.19
2018-05-10T01:23:07.121Z,99260.50
2018-05-10T01:25:33.723Z,99257.61
2018-05-10T01:28:01.559Z,99256.60
2018-05-10T01:30:28.953Z,99259.41
2018-05-10T01:32:55.541Z,99254.38
2018-05-10T01:35:34.064Z,99261.77
2018-05-10T01:38:04.143Z,99260.70
2018-05-10T01:40:31.052Z,99258.78
2018-05-10T01:42:57.828Z,99253.33
2018-05-10T01:45:24.436Z,99258.36
2018-05-10T01:47:54.320Z,99261.33
2018-05-10T01:50:20.813Z,99262.71
2018-05-10T01:52:47.535Z,99262.97
2018-05-10T01:55:14.164Z,99261.77
2018-05-10T01:57:47.270Z,99264.08
2018-05-10T02:00:14.543Z,99264.87
2018-05-10T02:02:41.499Z,99269.02
2018-05-10T02:05:08.204Z,99270.53
2018-05-10T02:07:36.843Z,99278.40
2018-05-10T02:10:03.418Z,99280.41
2018-05-10T02:12:30.565Z,99283.69
2018-05-10T02:14:57.172Z,99278.06
2018-05-10T02:17:27.722Z,99280.17
2018-05-10T02:19:54.871Z,99279.76
2018-05-10T02:22:21.501Z,99281.99
2018-05-10T02:24:48.256Z,99281.17
2018-05-10T02:27:18.832Z,99278.80
2018-05-10T02:29:45.523Z,99283.41
2018-05-10T02:32:12.168Z,99282.94
2018-05-10T02:34:38.832Z,99283.95
2018-05-10T02:37:09.190Z,99286.90
2018-05-10T02:39:35.835Z,99292.36
2018-05-10T02:42:02.403Z,99296.55
2018-05-10T02:44:29.066Z,99292.63
2018-05-10T02:46:57.036Z,99300.73
2018-05-10T02:49:23.958Z,99299.45
2018-05-10T02:51:50.664Z,99298.69
2018-05-10T02:54:17.781Z,99303.37
2018-05-10T02:56:47.953Z,99299.40
2018-05-10T02:59:14.781Z,99306.59
2018-05-10T03:01:41.446Z,99301.55
2018-05-10T03:04:08.138Z,99298.16
2018-05-10T03:06:34.829Z,99304.38
2018-05-10T03:09:09.377Z,99298.03
2018-05-10T03:11:36.251Z,99298.52
2018-05-10T03:14:02.741Z,99307.13
2018-05-10T03:16:29.416Z,99306.19
2018-05-10T03:18:56.481Z,99312.52
2018-05-10T03:21:23.029Z,99316.50
2018-05-10T03:23:49.720Z,99313.00
2018-05-10T03:26:16.708Z,99317.29
2018-05-10T03:28:49.149Z,99321.58
2018-05-10T03:31:15.940Z,99327.09
2018-05-10T03:33:42.659Z,99324.88
2018-05-10T03:36:09.268Z,99328.23
2018-05-10T03:38:39.644Z,99324.09
2018-05-10T03:41:06.309Z,99335.31
2018-05-10T03:43:33.397Z,99329.56
2018-05-10T03:46:00.052Z,99338.70
2018-05-10T03:48:36.961Z,99328.55
2018-05-10T03:51:03.735Z,99328.33
2018-05-10T03:53:31.509Z,99332.16
2018-05-10T03:55:58.149Z,99326.73
2018-05-10T03:58:32.503Z,99331.94
2018-05-10T04:00:59.122Z,99328.39
2018-05-10T04:03:37.857Z,99328.75
2018-05-10T04:06:16.527Z,99318.79
2018-05-10T04:08:58.621Z,99331.67
2018-05-10T04:11:27.025Z,99333.72
2018-05-10T04:13:53.724Z,99327.11
2018-05-10T04:16:20.481Z,99335.09
2018-05-10T04:18:47.198Z,99336.97
2018-05-10T04:21:14.002Z,99333.52
2018-05-10T04:23:40.802Z,99342.57
2018-05-10T04:26:07.460Z,99339.15
2018-05-10T04:28:44.659Z,99332.73
2018-05-10T04:31:11.386Z,99338.22
2018-05-10T04:33:38.066Z,99342.31
2018-05-10T04:36:04.804Z,99335.11
2018-05-10T04:38:37.766Z,99334.48
2018-05-10T04:41:04.402Z,99329.38
2018-05-10T04:43:31.478Z,99333.21
2018-05-10T04:45:58.360Z,99329.75
2018-05-10T04:48:31.029Z,99334.98
2018-05-10T04:50:57.944Z,99338.32
2018-05-10T04:53:24.932Z,99336.21
2018-05-10T04:55:52.419Z,99333.66
2018-05-10T04:58:22.878Z,99341.95
2018-05-10T05:00:49.653Z,99342.26
2018-05-10T05:05:48.909Z,99344.19
2018-05-10T05:08:19.165Z,99354.40
2018-05-10T05:10:45.839Z,99351.06
2018-05-10T05:13:12.426Z,99352.21
2018-05-10T05:15:39.144Z,99355.99
2018-05-10T05:18:09.949Z,99350.34
2018-05-10T05:20:36.694Z,99359.17
2018-05-10T05:23:03.340Z,99353.14
2018-05-10T05:25:30.030Z,99351.03
2018-05-10T05:28:00.010Z,99358.80
2018-05-10T05:30:27.515Z,99360.63
2018-05-10T05:32:54.726Z,99353.29
2018-05-10T05:35:21.446Z,99357.92
2018-05-10T05:37:53.528Z,99358.64
2018-05-10T05:40:20.115Z,99357.78
2018-05-10T05:42:46.857Z,99360.98
2018-05-10T05:45:13.569Z,99361.88
2018-05-10T05:47:43.360Z,99355.61
2018-05-10T05:50:09.841Z,99360.67
2018-05-10T05:52:36.550Z,99358.94
2018-05-10T05:55:03.899Z,99367.82
2018-05-10T05:57:36.435Z,99369.58
2018-05-10T06:00:03.188Z,99363.34
2018-05-10T06:02:29.956Z,99364.70
2018-05-10T06:04:56.686Z,99361.42
2018-05-10T06:07:27.612Z,99363.99
2018-05-10T06:09:54.302Z,99365.48
2018-05-10T06:12:20.951Z,99366.36
2018-05-10T06:14:47.931Z,99366.10
2018-05-10T06:17:17.868Z,99366.22
2018-05-10T06:19:44.876Z,99371.19
2018-05-10T06:22:11.534Z,99366.45
2018-05-10T06:24:38.523Z,99368.41
2018-05-10T06:27:09.516Z,99375.95
2018-05-10T06:29:36.247Z,99369.42
2018-05-10T06:32:02.849Z,99375.06
2018-05-10T06:34:29.564Z,99378.27
2018-05-10T06:36:59.615Z,99374.19
2018-05-10T06:39:26.138Z,99376.06
2018-05-10T06:41:52.996Z,99375.48
2018-05-10T06:44:19.637Z,99372.81
2018-05-10T06:46:52.757Z,99377.66
2018-05-10T06:49:19.994Z,99378.50
2018-05-10T06:51:46.696Z,99381.17
2018-05-10T06:54:13.671Z,99379.86
2018-05-10T06:56:54.565Z,99374.36
2018-05-10T06:59:21.229Z,99380.05
2018-05-10T07:01:47.903Z,99377.34
2018-05-10T07:04:14.568Z,99379.75
2018-05-10T07:06:44.449Z,99385.63
2018-05-10T07:09:11.094Z,99385.98
2018-05-10T07:11:37.694Z,99390.41
2018-05-10T07:14:04.486Z,99388.76
2018-05-10T07:16:45.739Z,99388.12
2018-05-10T07:19:12.281Z,99395.73
2018-05-10T07:21:39.219Z,99393.17
2018-05-10T07:24:05.778Z,99392.92
2018-05-10T07:26:33.114Z,99389.60
2018-05-10T07:29:00.057Z,99386.59
2018-05-10T07:31:26.838Z,99386.23
2018-05-10T07:33:54.726Z,99387.84
2018-05-10T07:36:22.930Z,99387.97
2018-05-10T07:38:49.645Z,99390.34
2018-05-10T07:41:16.262Z,99387.92
2018-05-10T07:43:43.016Z,99398.87
2018-05-10T07:46:09.628Z,99394.19
2018-05-10T07:48:36.225Z,99400.33
2018-05-10T07:51:02.943Z,99397.11
2018-05-10T07:53:29.849Z,99400.05
2018-05-10T07:55:56.942Z,99391.44
2018-05-10T07:58:25.099Z,99398.20
2018-05-10T08:00:51.876Z,99402.62
2018-05-10T08:03:18.819Z,99395.41
2018-05-10T08:05:45.499Z,99391.52
2018-05-10T08:08:17.053Z,99394.30
2018-05-10T08:10:43.692Z,99390.24
2018-05-10T08:13:10.710Z,99399.09
2018-05-10T08:15:37.402Z,99395.39
2018-05-10T08:18:05.082Z,99391.39
2018-05-10T08:20:31.701Z,99381.00
2018-05-10T08:22:58.487Z,99386.88
2018-05-10T08:25:25.070Z,99386.23
2018-05-10T08:27:56.674Z,99389.02
2018-05-10T08:30:23.509Z,99400.02
2018-05-10T08:32:50.040Z,99397.34
2018-05-10T08:35:16.684Z,99397.20
2018-05-10T08:37:48.064Z,99397.41
2018-05-10T08:40:14.774Z,99406.92
2018-05-10T08:42:41.435Z,99406.55
2018-05-10T08:45:08.222Z,99409.88
2018-05-10T08:47:40.919Z,99406.36
2018-05-10T08:50:07.571Z,99401.23
2018-05-10T08:52:34.238Z,99400.59
2018-05-10T08:55:00.952Z,99409.13
2018-05-10T08:57:31.292Z,99404.45
2018-05-10T08:59:58.393Z,99399.10
2018-05-10T09:02:25.072Z,99404.73
2018-05-10T09:04:51.876Z,99403.20
2018-05-10T09:07:29.409Z,99401.87
2018-05-10T09:09:55.968Z,99407.46
2018-05-10T09:12:22.790Z,99401.30
2018-05-10T09:14:49.532Z,99400.40
2018-05-10T09:17:19.616Z,99404.73
2018-05-10T09:19:46.241Z,99406.99
2018-05-10T09:22:13.002Z,99403.69
2018-05-10T09:24:39.766Z,99403.55
2018-05-10T09:27:12.701Z,99399.53
2018-05-10T09:29:39.597Z,99397.44
2018-05-10T09:32:06.174Z,99404.56
2018-05-10T09:34:32.871Z,99395.73
2018-05-10T09:37:00.610Z,99392.14
2018-05-10T09:39:27.617Z,99395.03
2018-05-10T09:41:54.151Z,99390.60
2018-05-10T09:44:20.936Z,99394.05
2018-05-10T09:46:50.904Z,99391.22
2018-05-10T09:49:17.654Z,99393.23
2018-05-10T09:51:44.550Z,99399.67
2018-05-10T09:54:11.267Z,99395.02
2018-05-10T09:56:41.724Z,99406.02
2018-05-10T09:59:08.777Z,99396.70
2018-05-10T10:01:35.602Z,99404.25
2018-05-10T10:04:02.185Z,99404.84
2018-05-10T10:06:42.037Z,99397.87
2018-05-10T10:09:08.577Z,99394.69
2018-05-10T10:11:35.590Z,99391.48
2018-05-10T10:14:02.229Z,99390.22
2018-05-10T10:16:32.169Z,99389.67
2018-05-10T10:18:58.876Z,99392.79
2018-05-10T10:21:25.888Z,99388.88
2018-05-10T10:23:52.613Z,99396.23
2018-05-10T10:26:20.480Z,99394.23
2018-05-10T10:28:47.193Z,99400.49
2018-05-10T10:31:13.909Z,99395.41
2018-05-10T10:33:40.610Z,99399.59
2018-05-10T10:36:10.550Z,99400.73
2018-05-10T10:38:37.591Z,99401.66
2018-05-10T10:41:04.311Z,99399.08
2018-05-10T10:43:31.140Z,99390.71
2018-05-10T10:46:01.418Z,99396.95
2018-05-10T10:48:29.125Z,99383.02
2018-05-10T10:50:55.860Z,99390.98
2018-05-10T10:53:22.570Z,99386.80
2018-05-10T10:55:49.488Z,99378.06
2018-05-10T10:58:16.214Z,99386.07
2018-05-10T11:00:42.939Z,99379.54
2018-05-10T11:03:09.835Z,99379.45
2018-05-10T11:05:43.436Z,99381.48
2018-05-10T11:08:10.139Z,99396.41
2018-05-10T11:10:36.910Z,99403.11
2018-05-10T11:13:03.767Z,99396.88
2018-05-10T11:15:32.672Z,99401.91
2018-05-10T11:17:59.432Z,99404.42
2018-05-10T11:20:26.141Z,99403.68
2018-05-10T11:22:52.806Z,99399.44
2018-05-10T11:25:19.472Z,99403.64
2018-05-10T11:27:50.432Z,99409.31
2018-05-10T11:30:17.149Z,99409.27
2018-05-10T11:32:43.821Z,99410.11
2018-05-10T11:35:10.594Z,99407.19
2018-05-10T11:37:38.084Z,99406.20
2018-05-10T11:40:05.078Z,99405.67
2018-05-10T11:42:31.922Z,99401.76
2018-05-10T11:44:58.682Z,99401.59
2018-05-10T11:47:30.221Z,99398.78
2018-05-10T11:49:57.435Z,99400.80
2018-05-10T11:52:24.281Z,99399.40
2018-05-10T11:54:50.961Z,99394.61
2018-05-10T11:57:18.894Z,99392.43
2018-05-10T11:59:45.467Z,99398.03
2018-05-10T12:02:12.114Z,99394.63
2018-05-10T12:04:38.795Z,99399.47
2018-05-10T12:07:10.698Z,99399.58
2018-05-10T12:09:37.405Z,99395.47
2018-05-10T12:12:03.970Z,99403.62
2018-05-10T12:14:30.562Z,99404.80
2018-05-10T12:17:07.251Z,99407.94
2018-05-10T12:19:34.018Z,99401.23
2018-05-10T12:22:00.607Z,99391.84
2018-05-10T12:24:27.574Z,99388.31
2018-05-10T12:27:00.318Z,99388.53
2018-05-10T12:29:26.991Z,99385.72
2018-05-10T12:31:53.696Z,99382.33
2018-05-10T12:34:20.331Z,99388.26
2018-05-10T12:36:47.916Z,99396.77
2018-05-10T12:39:14.584Z,99398.57
2018-05-10T12:41:41.380Z,99402.16
2018-05-10T12:44:08.080Z,99398.72
2018-05-10T12:46:35.801Z,99398.09
2018-05-10T12:49:03.164Z,99399.87
2018-05-10T12:51:29.800Z,99401.27
2018-05-10T12:53:56.986Z,99401.66
2018-05-10T12:56:29.253Z,99400.70
2018-05-10T12:58:55.728Z,99402.48
2018-05-10T13:01:22.381Z,99406.19
2018-05-10T13:03:49.080Z,99403.20
2018-05-10T13:06:21.871Z,99403.14
2018-05-10T13:08:48.894Z,99396.19
2018-05-10T13:11:15.591Z,99395.17
2018-05-10T13:13:42.892Z,99395.13
2018-05-10T13:16:16.107Z,99397.04
2018-05-10T13:18:42.752Z,99396.27
2018-05-10T13:21:09.710Z,99398.11
2018-05-10T13:23:37.017Z,99404.00
2018-05-10T13:26:07.438Z,99399.48
2018-05-10T13:28:34.098Z,99407.44
2018-05-10T13:31:00.823Z,99407.11
2018-05-10T13:33:27.473Z,99407.77
2018-05-10T13:35:57.255Z,99403.94
2018-05-10T13:38:24.529Z,99408.39
2018-05-10T13:40:50.989Z,99409.59
2018-05-10T13:43:17.601Z,99407.75
2018-05-10T13:45:51.810Z,99409.22
2018-05-10T13:48:18.389Z,99417.89
2018-05-10T13:50:45.633Z,99422.66
2018-05-10T13:53:12.325Z,99425.12
2018-05-10T13:55:39.198Z,99422.66
2018-05-10T13:58:05.897Z,99429.00
2018-05-10T14:00:32.538Z,99424.50
2018-05-10T14:02:59.328Z,99426.09
2018-05-10T14:05:26.376Z,99425.69
2018-05-10T14:07:52.975Z,99422.77
2018-05-10T14:10:19.509Z,99419.97
2018-05-10T14:12:46.072Z,99423.30
2018-05-10T14:15:13.042Z,99428.25
2018-05-10T14:17:39.990Z,99429.05
2018-05-10T14:20:06.740Z,99431.20
2018-05-10T14:22:33.386Z,99433.34
2018-05-10T14:25:00.123Z,99429.51
2018-05-10T14:27:26.675Z,99431.27
2018-05-10T14:29:53.276Z,99435.14
2018-05-10T14:32:19.849Z,99435.56
2018-05-10T14:34:46.500Z,99439.16
2018-05-10T14:37:13.085Z,99440.68
2018-05-10T14:39:39.814Z,99442.36
2018-05-10T14:42:06.778Z,99441.53
2018-05-10T14:44:33.401Z,99437.16
2018-05-10T14:47:01.269Z,99444.93
2018-05-10T14:49:27.780Z,99439.04
2018-05-10T14:51:54.719Z,99443.45
2018-05-10T14:54:21.450Z,99444.73
2018-05-10T14:56:52.197Z,99449.50
2018-05-10T14:59:18.859Z,99450.54
2018-05-10T15:01:45.522Z,99451.27
2018-05-10T15:04:12.231Z,99455.55
2018-05-10T15:06:39.080Z,99457.72
2018-05-10T15:09:05.697Z,99462.14
2018-05-10T15:11:32.563Z,99466.41
2018-05-10T15:13:59.183Z,99466.20
2018-05-10T15:16:33.135Z,99468.23
2018-05-10T15:19:00.017Z,99476.63
2018-05-10T15:21:26.735Z,99471.08
2018-05-10T15:23:53.540Z,99478.73
2018-05-10T15:26:28.025Z,99475.92
2018-05-10T15:28:54.750Z,99475.84
2018-05-10T15:31:21.573Z,99479.98
2018-05-10T15:33:48.355Z,99470.59
2018-05-10T15:36:18.584Z,99471.51
2018-05-10T15:38:45.287Z,99475.77
2018-05-10T15:41:11.854Z,99481.39
2018-05-10T15:43:38.970Z,99480.70
2018-05-10T15:46:05.994Z,99475.89
2018-05-10T15:48:32.615Z,99481.42
2018-05-10T15:50:59.333Z,99483.33
2018-05-10T15:53:26.470Z,99477.00
2018-05-10T15:55:58.413Z,99482.31
2018-05-10T15:58:25.395Z,99483.88
2018-05-10T16:00:52.244Z,99483.72
2018-05-10T16:03:19.159Z,99493.52
2018-05-10T16:06:00.799Z,99492.56
2018-05-10T16:08:27.461Z,99490.19
2018-05-10T16:10:54.134Z,99499.91
2018-05-10T16:13:20.858Z,99502.48
2018-05-10T16:15:48.946Z,99504.13
2018-05-10T16:18:15.932Z,99501.67
2018-05-10T16:20:42.631Z,99501.05
2018-05-10T16:23:09.326Z,99501.95
2018-05-10T16:25:40.042Z,99499.34
2018-05-10T16:28:07.339Z,99494.34
2018-05-10T16:30:34.130Z,99496.45
2018-05-10T16:33:00.970Z,99493.47
2018-05-10T16:35:31.203Z,99496.47
2018-05-10T16:37:57.866Z,99503.38
2018-05-10T16:40:24.569Z,99503.50
2018-05-10T16:42:51.249Z,99513.74
2018-05-10T16:45:18.918Z,99511.70
2018-05-10T16:47:45.632Z,99514.65
2018-05-10T16:50:12.459Z,99512.48
2018-05-10T16:52:39.898Z,99517.58
2018-05-10T16:55:13.238Z,99512.41
2018-05-10T16:57:39.924Z,99522.22
2018-05-10T17:00:06.598Z,99532.52
2018-05-10T17:02:33.278Z,99536.95
2018-05-10T17:05:17.197Z,99538.61
2018-05-10T17:07:44.218Z,99538.59
2018-05-10T17:10:11.819Z,99543.85
2018-05-10T17:12:38.602Z,99547.27
2018-05-10T17:15:12.276Z,99559.37
2018-05-10T17:17:39.224Z,99563.36
2018-05-10T17:20:05.809Z,99572.92
2018-05-10T17:22:32.680Z,99573.34
2018-05-10T17:25:03.808Z,99578.52
2018-05-10T17:27:30.461Z,99585.39
2018-05-10T17:29:57.222Z,99580.34
2018-05-10T17:32:23.819Z,99583.84
2018-05-10T17:34:53.859Z,99585.43
2018-05-10T17:37:20.599Z,99578.98
2018-05-10T17:39:47.575Z,99585.70
2018-05-10T17:42:14.257Z,99601.48
2018-05-10T17:44:46.064Z,99600.38
2018-05-10T17:47:12.782Z,99601.23
2018-05-10T17:49:39.493Z,99606.50
2018-05-10T17:52:06.217Z,99616.25
2018-05-10T17:54:33.677Z,99603.88
2018-05-10T17:57:00.409Z,99615.71
2018-05-10T17:59:27.200Z,99610.41
2018-05-10T18:01:54.384Z,99603.44
2018-05-10T18:04:21.410Z,99616.57
2018-05-10T18:06:48.388Z,99610.77
2018-05-10T18:09:14.974Z,99615.31
2018-05-10T18:11:42.747Z,99615.86
2018-05-10T18:14:09.437Z,99616.43
2018-05-10T18:16:36.335Z,99621.28
2018-05-10T18:19:02.934Z,99618.73
2018-05-10T18:21:29.647Z,99621.31
2018-05-10T18:23:56.470Z,99618.05
2018-05-10T18:26:26.664Z,99625.18
2018-05-10T18:28:53.362Z,99629.13
2018-05-10T18:31:20.574Z,99624.27
2018-05-10T18:33:47.344Z,99623.61
2018-05-10T18:36:17.864Z,99625.16
2018-05-10T18:38:44.474Z,99630.02
2018-05-10T18:41:10.979Z,99633.03
2018-05-10T18:43:37.616Z,99635.63
2018-05-10T18:46:04.275Z,99628.76
2018-05-10T18:48:31.976Z,99633.31
2018-05-10T18:50:58.942Z,99631.91
2018-05-10T18:53:25.620Z,99627.93
2018-05-10T18:55:53.945Z,99631.79
2018-05-10T18:58:22.643Z,99637.08
2018-05-10T19:00:50.883Z,99637.00
2018-05-10T19:03:17.814Z,99631.22
2018-05-10T19:05:44.530Z,99623.42
2018-05-10T19:08:11.277Z,99629.36
2018-05-10T19:10:37.986Z,99628.63
2018-05-10T19:13:04.643Z,99632.03
2018-05-10T19:15:31.519Z,99630.59
2018-05-10T19:17:57.974Z,99634.02
2018-05-10T19:20:24.473Z,99640.98
2018-05-10T19:22:51.318Z,99638.92
2018-05-10T19:25:18.264Z,99634.73
2018-05-10T19:27:45.077Z,99642.30
2018-05-10T19:30:11.594Z,99637.10
2018-05-10T19:32:38.808Z,99638.96
2018-05-10T19:35:06.602Z,99642.35
2018-05-10T19:37:33.279Z,99644.14
2018-05-10T19:40:00.233Z,99644.26
2018-05-10T19:42:27.148Z,99640.36
2018-05-10T19:44:58.426Z,99643.70
2018-05-10T19:47:25.163Z,99641.71
2018-05-10T19:49:51.783Z,99642.92
2018-05-10T19:52:18.442Z,99642.14
2018-05-10T19:54:50.479Z,99649.11
2018-05-10T19:57:17.111Z,99643.95
2018-05-10T19:59:43.732Z,99641.68
2018-05-10T20:02:10.339Z,99643.16
2018-05-10T20:04:41.959Z,99651.85
2018-05-10T20:07:08.672Z,99641.30
2018-05-10T20:09:35.285Z,99648.92
2018-05-10T20:12:01.880Z,99645.42
2018-05-10T20:14:31.539Z,99645.13
2018-05-10T20:16:58.280Z,99645.91
2018-05-10T20:19:24.900Z,99644.20
2018-05-10T20:21:51.892Z,99641.68
2018-05-10T20:24:22.516Z,99641.39
2018-05-10T20:26:49.315Z,99640.41
2018-05-10T20:29:16.123Z,99635.40
2018-05-10T20:31:42.838Z,99637.75
2018-05-10T20:34:16.664Z,99641.59
2018-05-10T20:36:43.174Z,99640.09
2018-05-10T20:39:09.912Z,99631.20
2018-05-10T20:41:36.630Z,99637.48
2018-05-10T20:44:03.577Z,99641.14
2018-05-10T20:46:30.011Z,99642.81
2018-05-10T20:48:56.596Z,99645.36
2018-05-10T20:51:23.266Z,99653.64
2018-05-10T20:53:50.133Z,99659.61
2018-05-10T20:56:22.877Z,99658.61
2018-05-10T20:58:49.536Z,99650.18
2018-05-10T21:01:16.340Z,99657.09
2018-05-10T21:03:43.117Z,99657.39
2018-05-10T21:06:11.842Z,99652.23
2018-05-10T21:08:38.510Z,99658.48
2018-05-10T21:11:05.233Z,99651.65
2018-05-10T21:13:32.457Z,99650.01
2018-05-10T21:16:00.216Z,99645.58
2018-05-10T21:18:27.126Z,99645.78
2018-05-10T21:20:53.922Z,99646.27
2018-05-10T21:23:21.791Z,99649.15
2018-05-10T21:25:48.499Z,99646.83
2018-05-10T21:28:15.498Z,99647.02
2018-05-10T21:30:42.956Z,99648.89
2018-05-10T21:33:09.660Z,99645.94
2018-05-10T21:35:40.155Z,99654.81
2018-05-10T21:38:06.787Z,99650.34
2018-05-10T21:40:33.803Z,99657.47
2018-05-10T21:43:00.476Z,99650.31
2018-05-10T21:45:31.314Z,99650.78
2018-05-10T21:47:58.447Z,99650.28
2018-05-10T21:50:26.837Z,99656.61
2018-05-10T21:52:53.417Z,99662.80
2018-05-10T21:55:21.107Z,99662.00
2018-05-10T21:57:48.863Z,99660.38
2018-05-10T22:00:15.558Z,99667.16
2018-05-10T22:02:42.175Z,99671.60
2018-05-10T22:05:19.346Z,99672.92
2018-05-10T22:07:45.981Z,99675.05
2018-05-10T22:10:12.532Z,99671.23
2018-05-10T22:12:39.177Z,99678.22
2018-05-10T22:15:09.599Z,99676.47
2018-05-10T22:17:36.064Z,99676.77
2018-05-10T22:20:02.575Z,99683.16
2018-05-10T22:22:30.040Z,99691.56
2018-05-10T22:25:00.556Z,99691.36
2018-05-10T22:27:27.516Z,99690.44
2018-05-10T22:29:54.205Z,99691.59
2018-05-10T22:32:20.910Z,99689.54
2018-05-10T22:34:48.831Z,99690.60
2018-05-10T22:37:15.423Z,99695.40
2018-05-10T22:39:46.212Z,99704.80
2018-05-10T22:42:13.253Z,99697.55
2018-05-10T22:44:40.749Z,99697.09
2018-05-10T22:47:07.487Z,99699.80
2018-05-10T22:49:34.223Z,99698.34
2018-05-10T22:52:01.626Z,99691.46
2018-05-10T22:54:34.885Z,99691.69
2018-05-10T22:57:01.505Z,99689.48
2018-05-10T22:59:28.522Z,99683.22
2018-05-10T23:01:55.187Z,99682.63
2018-05-10T23:04:35.938Z,99680.14
2018-05-10T23:07:02.605Z,99687.02
2018-05-10T23:09:29.703Z,99685.63
2018-05-10T23:11:56.303Z,99682.33
2018-05-10T23:14:23.250Z,99678.39
2018-05-10T23:16:50.249Z,99680.41
2018-05-10T23:19:16.897Z,99679.31
2018-05-10T23:21:43.622Z,99670.51
2018-05-10T23:24:11.537Z,99671.04
2018-05-10T23:26:38.133Z,99673.78
2018-05-10T23:29:04.712Z,99672.52
2018-05-10T23:31:31.318Z,99662.56
2018-05-10T23:34:05.698Z,99662.20
2018-05-10T23:36:32.442Z,99660.38
2018-05-10T23:38:59.646Z,99654.84
2018-05-10T23:41:26.352Z,99656.84
2018-05-10T23:43:54.195Z,99653.37
2018-05-10T23:46:20.744Z,99646.02
2018-05-10T23:48:47.300Z,99643.80
2018-05-10T23:51:13.982Z,99648.01
2018-05-10T23:53:40.576Z,99650.23
2018-05-10T23:56:07.203Z,99644.40
2018-05-10T23:58:34.400Z,99655.72
